sensor_id;sensor_type;location;lat;lon;timestamp;P1;durP1;ratioP1;P2;durP2;ratioP2
2011;SDS011;1009;51.436;6.972;2023-12-20T00:00:56;32.30;;;17.87;;
2011;SDS011;1009;51.436;6.972;2023-12-20T00:03:23;35.30;;;18.37;;
2011;SDS011;1009;51.436;6.972;2023-12-20T00:05:50;32.53;;;18.30;;
2011;SDS011;1009;51.436;6.972;2023-12-20T00:08:17;32.30;;;17.80;;
2011;SDS011;1009;51.436;6.972;2023-12-20T00:10:44;34.93;;;16.47;;
2011;SDS011;1009;51.436;6.972;2023-12-20T00:13:10;34.20;;;17.90;;
2011;SDS011;1009;51.436;6.972;2023-12-20T00:15:39;32.20;;;17.43;;
2011;SDS011;1009;51.436;6.972;2023-12-20T00:18:05;25.80;;;14.33;;
2011;SDS011;1009;51.436;6.972;2023-12-20T00:20:32;28.80;;;14.80;;
2011;SDS011;1009;51.436;6.972;2023-12-20T00:22:59;30.40;;;13.60;;
2011;SDS011;1009;51.436;6.972;2023-12-20T00:25:26;29.47;;;16.50;;
2011;SDS011;1009;51.436;6.972;2023-12-20T00:27:53;29.20;;;14.73;;
2011;SDS011;1009;51.436;6.972;2023-12-20T00:30:19;24.87;;;13.77;;
2011;SDS011;1009;51.436;6.972;2023-12-20T00:32:47;31.17;;;15.40;;
2011;SDS011;1009;51.436;6.972;2023-12-20T00:35:14;24.70;;;13.53;;
2011;SDS011;1009;51.436;6.972;2023-12-20T00:37:42;31.87;;;15.10;;
2011;SDS011;1009;51.436;6.972;2023-12-20T00:40:09;27.03;;;14.70;;
2011;SDS011;1009;51.436;6.972;2023-12-20T00:42:36;23.27;;;13.10;;
2011;SDS011;1009;51.436;6.972;2023-12-20T00:45:04;21.73;;;11.53;;
2011;SDS011;1009;51.436;6.972;2023-12-20T00:47:31;19.20;;;11.63;;
2011;SDS011;1009;51.436;6.972;2023-12-20T00:49:59;23.10;;;11.33;;
2011;SDS011;1009;51.436;6.972;2023-12-20T00:52:26;24.57;;;11.43;;
2011;SDS011;1009;51.436;6.972;2023-12-20T00:54:53;20.53;;;10.07;;
2011;SDS011;1009;51.436;6.972;2023-12-20T00:57:19;22.10;;;10.90;;
2011;SDS011;1009;51.436;6.972;2023-12-20T00:59:46;19.73;;;10.93;;
2011;SDS011;1009;51.436;6.972;2023-12-20T01:02:13;21.00;;;10.40;;
2011;SDS011;1009;51.436;6.972;2023-12-20T01:04:40;15.70;;;8.43;;
2011;SDS011;1009;51.436;6.972;2023-12-20T01:07:08;15.87;;;9.80;;
2011;SDS011;1009;51.436;6.972;2023-12-20T01:09:34;18.37;;;10.10;;
2011;SDS011;1009;51.436;6.972;2023-12-20T01:12:01;21.67;;;9.70;;
2011;SDS011;1009;51.436;6.972;2023-12-20T01:14:28;16.07;;;10.00;;
2011;SDS011;1009;51.436;6.972;2023-12-20T01:16:55;14.20;;;8.67;;
2011;SDS011;1009;51.436;6.972;2023-12-20T01:19:22;17.93;;;10.70;;
2011;SDS011;1009;51.436;6.972;2023-12-20T01:21:49;17.60;;;9.33;;
2011;SDS011;1009;51.436;6.972;2023-12-20T01:24:17;20.23;;;9.30;;
2011;SDS011;1009;51.436;6.972;2023-12-20T01:26:44;18.40;;;11.07;;
2011;SDS011;1009;51.436;6.972;2023-12-20T01:29:11;19.03;;;9.73;;
2011;SDS011;1009;51.436;6.972;2023-12-20T01:31:39;22.83;;;10.13;;
2011;SDS011;1009;51.436;6.972;2023-12-20T01:34:06;17.27;;;9.83;;
2011;SDS011;1009;51.436;6.972;2023-12-20T01:36:33;16.60;;;10.73;;
2011;SDS011;1009;51.436;6.972;2023-12-20T01:39:00;15.10;;;10.20;;
2011;SDS011;1009;51.436;6.972;2023-12-20T01:41:28;19.70;;;11.13;;
2011;SDS011;1009;51.436;6.972;2023-12-20T01:43:54;15.90;;;11.17;;
2011;SDS011;1009;51.436;6.972;2023-12-20T01:46:21;17.53;;;10.20;;
2011;SDS011;1009;51.436;6.972;2023-12-20T01:48:48;16.83;;;10.10;;
2011;SDS011;1009;51.436;6.972;2023-12-20T01:51:15;17.03;;;9.50;;
2011;SDS011;1009;51.436;6.972;2023-12-20T01:53:42;17.10;;;9.03;;
2011;SDS011;1009;51.436;6.972;2023-12-20T01:56:10;14.37;;;8.80;;
2011;SDS011;1009;51.436;6.972;2023-12-20T01:58:39;15.07;;;10.00;;
2011;SDS011;1009;51.436;6.972;2023-12-20T02:01:11;11.53;;;8.80;;
2011;SDS011;1009;51.436;6.972;2023-12-20T02:03:38;12.10;;;8.20;;
2011;SDS011;1009;51.436;6.972;2023-12-20T02:06:05;12.43;;;8.10;;
2011;SDS011;1009;51.436;6.972;2023-12-20T02:08:33;15.70;;;8.83;;
2011;SDS011;1009;51.436;6.972;2023-12-20T02:11:00;15.03;;;7.83;;
2011;SDS011;1009;51.436;6.972;2023-12-20T02:13:27;14.50;;;7.50;;
2011;SDS011;1009;51.436;6.972;2023-12-20T02:15:55;22.30;;;6.87;;
2011;SDS011;1009;51.436;6.972;2023-12-20T02:18:22;12.23;;;7.33;;
2011;SDS011;1009;51.436;6.972;2023-12-20T02:20:49;12.27;;;7.97;;
2011;SDS011;1009;51.436;6.972;2023-12-20T02:23:17;15.80;;;7.97;;
2011;SDS011;1009;51.436;6.972;2023-12-20T02:25:44;10.70;;;7.40;;
2011;SDS011;1009;51.436;6.972;2023-12-20T02:28:11;15.70;;;7.77;;
2011;SDS011;1009;51.436;6.972;2023-12-20T02:30:37;15.97;;;7.60;;
2011;SDS011;1009;51.436;6.972;2023-12-20T02:33:05;18.03;;;8.83;;
2011;SDS011;1009;51.436;6.972;2023-12-20T02:35:36;15.03;;;7.60;;
2011;SDS011;1009;51.436;6.972;2023-12-20T02:38:03;16.20;;;8.07;;
2011;SDS011;1009;51.436;6.972;2023-12-20T02:40:31;13.80;;;8.77;;
2011;SDS011;1009;51.436;6.972;2023-12-20T02:42:58;16.40;;;9.00;;
2011;SDS011;1009;51.436;6.972;2023-12-20T02:45:25;14.47;;;8.57;;
2011;SDS011;1009;51.436;6.972;2023-12-20T02:47:52;12.90;;;7.83;;
2011;SDS011;1009;51.436;6.972;2023-12-20T02:50:18;13.50;;;7.60;;
2011;SDS011;1009;51.436;6.972;2023-12-20T02:52:45;9.70;;;7.50;;
2011;SDS011;1009;51.436;6.972;2023-12-20T02:55:12;15.23;;;9.40;;
2011;SDS011;1009;51.436;6.972;2023-12-20T02:57:40;14.10;;;8.30;;
2011;SDS011;1009;51.436;6.972;2023-12-20T03:00:07;16.03;;;8.83;;
2011;SDS011;1009;51.436;6.972;2023-12-20T03:02:35;18.63;;;7.80;;
2011;SDS011;1009;51.436;6.972;2023-12-20T03:05:02;17.87;;;8.50;;
2011;SDS011;1009;51.436;6.972;2023-12-20T03:07:29;15.17;;;8.30;;
2011;SDS011;1009;51.436;6.972;2023-12-20T03:09:56;24.93;;;10.10;;
2011;SDS011;1009;51.436;6.972;2023-12-20T03:12:23;12.50;;;7.63;;
2011;SDS011;1009;51.436;6.972;2023-12-20T03:14:51;16.10;;;9.70;;
2011;SDS011;1009;51.436;6.972;2023-12-20T03:17:18;11.73;;;7.83;;
2011;SDS011;1009;51.436;6.972;2023-12-20T03:19:45;19.83;;;8.67;;
2011;SDS011;1009;51.436;6.972;2023-12-20T03:22:12;12.77;;;7.73;;
2011;SDS011;1009;51.436;6.972;2023-12-20T03:24:39;14.63;;;7.23;;
2011;SDS011;1009;51.436;6.972;2023-12-20T03:27:05;14.20;;;7.67;;
2011;SDS011;1009;51.436;6.972;2023-12-20T03:29:32;13.13;;;6.83;;
2011;SDS011;1009;51.436;6.972;2023-12-20T03:32:00;13.93;;;6.90;;
2011;SDS011;1009;51.436;6.972;2023-12-20T03:34:27;11.93;;;6.57;;
2011;SDS011;1009;51.436;6.972;2023-12-20T03:36:54;17.00;;;7.00;;
2011;SDS011;1009;51.436;6.972;2023-12-20T03:39:21;13.83;;;6.13;;
2011;SDS011;1009;51.436;6.972;2023-12-20T03:41:47;13.10;;;5.20;;
2011;SDS011;1009;51.436;6.972;2023-12-20T03:44:14;10.33;;;5.73;;
2011;SDS011;1009;51.436;6.972;2023-12-20T03:46:41;14.50;;;5.60;;
2011;SDS011;1009;51.436;6.972;2023-12-20T03:49:09;12.57;;;5.23;;
2011;SDS011;1009;51.436;6.972;2023-12-20T03:51:36;10.83;;;4.27;;
2011;SDS011;1009;51.436;6.972;2023-12-20T03:54:02;12.53;;;6.50;;
2011;SDS011;1009;51.436;6.972;2023-12-20T03:56:29;8.13;;;4.67;;
2011;SDS011;1009;51.436;6.972;2023-12-20T03:58:59;15.87;;;5.47;;
2011;SDS011;1009;51.436;6.972;2023-12-20T04:01:25;17.23;;;4.73;;
2011;SDS011;1009;51.436;6.972;2023-12-20T04:03:52;9.10;;;4.80;;
2011;SDS011;1009;51.436;6.972;2023-12-20T04:06:20;10.70;;;4.63;;
2011;SDS011;1009;51.436;6.972;2023-12-20T04:08:47;11.60;;;4.50;;
2011;SDS011;1009;51.436;6.972;2023-12-20T04:11:14;15.00;;;5.20;;
2011;SDS011;1009;51.436;6.972;2023-12-20T04:13:41;15.10;;;5.03;;
2011;SDS011;1009;51.436;6.972;2023-12-20T04:16:07;15.40;;;5.23;;
2011;SDS011;1009;51.436;6.972;2023-12-20T04:18:34;10.77;;;4.67;;
2011;SDS011;1009;51.436;6.972;2023-12-20T04:21:01;21.03;;;5.50;;
2011;SDS011;1009;51.436;6.972;2023-12-20T04:23:29;8.73;;;4.93;;
2011;SDS011;1009;51.436;6.972;2023-12-20T04:25:56;11.90;;;5.53;;
2011;SDS011;1009;51.436;6.972;2023-12-20T04:28:23;14.53;;;5.00;;
2011;SDS011;1009;51.436;6.972;2023-12-20T04:30:50;10.73;;;4.70;;
2011;SDS011;1009;51.436;6.972;2023-12-20T04:33:17;14.77;;;5.17;;
2011;SDS011;1009;51.436;6.972;2023-12-20T04:35:43;12.50;;;5.60;;
2011;SDS011;1009;51.436;6.972;2023-12-20T04:38:11;9.70;;;5.40;;
2011;SDS011;1009;51.436;6.972;2023-12-20T04:40:39;13.17;;;6.70;;
2011;SDS011;1009;51.436;6.972;2023-12-20T04:43:06;15.30;;;7.10;;
2011;SDS011;1009;51.436;6.972;2023-12-20T04:45:33;16.60;;;7.70;;
2011;SDS011;1009;51.436;6.972;2023-12-20T04:48:00;12.23;;;5.90;;
2011;SDS011;1009;51.436;6.972;2023-12-20T04:50:27;19.17;;;8.57;;
2011;SDS011;1009;51.436;6.972;2023-12-20T04:52:54;12.30;;;7.10;;
2011;SDS011;1009;51.436;6.972;2023-12-20T04:55:21;16.07;;;7.13;;
2011;SDS011;1009;51.436;6.972;2023-12-20T04:57:49;15.57;;;7.03;;
2011;SDS011;1009;51.436;6.972;2023-12-20T05:00:16;12.40;;;7.10;;
2011;SDS011;1009;51.436;6.972;2023-12-20T05:02:43;27.30;;;7.73;;
2011;SDS011;1009;51.436;6.972;2023-12-20T05:05:10;15.10;;;7.70;;
2011;SDS011;1009;51.436;6.972;2023-12-20T05:07:37;11.93;;;7.30;;
2011;SDS011;1009;51.436;6.972;2023-12-20T05:10:04;18.37;;;7.70;;
2011;SDS011;1009;51.436;6.972;2023-12-20T05:12:36;11.93;;;7.50;;
2011;SDS011;1009;51.436;6.972;2023-12-20T05:15:05;13.90;;;6.93;;
2011;SDS011;1009;51.436;6.972;2023-12-20T05:17:32;13.13;;;7.03;;
2011;SDS011;1009;51.436;6.972;2023-12-20T05:19:59;14.63;;;7.17;;
2011;SDS011;1009;51.436;6.972;2023-12-20T05:22:26;16.60;;;7.97;;
2011;SDS011;1009;51.436;6.972;2023-12-20T05:24:53;10.83;;;7.43;;
2011;SDS011;1009;51.436;6.972;2023-12-20T05:27:20;11.07;;;6.57;;
2011;SDS011;1009;51.436;6.972;2023-12-20T05:29:47;16.13;;;8.33;;
2011;SDS011;1009;51.436;6.972;2023-12-20T05:32:15;13.63;;;8.23;;
2011;SDS011;1009;51.436;6.972;2023-12-20T05:34:42;13.03;;;6.57;;
2011;SDS011;1009;51.436;6.972;2023-12-20T05:37:09;19.70;;;7.83;;
2011;SDS011;1009;51.436;6.972;2023-12-20T05:39:36;21.73;;;9.03;;
2011;SDS011;1009;51.436;6.972;2023-12-20T05:42:03;15.30;;;8.13;;
2011;SDS011;1009;51.436;6.972;2023-12-20T05:44:30;16.10;;;8.10;;
2011;SDS011;1009;51.436;6.972;2023-12-20T05:46:57;17.40;;;8.00;;
2011;SDS011;1009;51.436;6.972;2023-12-20T05:49:25;21.33;;;10.47;;
2011;SDS011;1009;51.436;6.972;2023-12-20T05:51:52;15.70;;;9.40;;
2011;SDS011;1009;51.436;6.972;2023-12-20T05:54:19;19.23;;;8.93;;
2011;SDS011;1009;51.436;6.972;2023-12-20T05:56:46;15.37;;;9.40;;
2011;SDS011;1009;51.436;6.972;2023-12-20T05:59:13;22.73;;;10.57;;
2011;SDS011;1009;51.436;6.972;2023-12-20T06:01:40;14.00;;;8.27;;
2011;SDS011;1009;51.436;6.972;2023-12-20T06:04:06;13.90;;;8.43;;
2011;SDS011;1009;51.436;6.972;2023-12-20T06:06:35;13.90;;;8.03;;
2011;SDS011;1009;51.436;6.972;2023-12-20T06:09:07;17.50;;;9.00;;
2011;SDS011;1009;51.436;6.972;2023-12-20T06:11:33;23.10;;;9.10;;
2011;SDS011;1009;51.436;6.972;2023-12-20T06:14:00;22.00;;;8.83;;
2011;SDS011;1009;51.436;6.972;2023-12-20T06:16:27;12.67;;;7.80;;
2011;SDS011;1009;51.436;6.972;2023-12-20T06:18:54;17.03;;;8.30;;
2011;SDS011;1009;51.436;6.972;2023-12-20T06:21:21;19.60;;;8.27;;
2011;SDS011;1009;51.436;6.972;2023-12-20T06:23:49;15.13;;;8.40;;
2011;SDS011;1009;51.436;6.972;2023-12-20T06:26:15;20.00;;;8.30;;
2011;SDS011;1009;51.436;6.972;2023-12-20T06:28:43;17.87;;;8.93;;
2011;SDS011;1009;51.436;6.972;2023-12-20T06:31:11;18.17;;;9.57;;
2011;SDS011;1009;51.436;6.972;2023-12-20T06:33:37;13.77;;;8.40;;
2011;SDS011;1009;51.436;6.972;2023-12-20T06:36:05;19.07;;;8.60;;
2011;SDS011;1009;51.436;6.972;2023-12-20T06:38:32;20.20;;;8.67;;
2011;SDS011;1009;51.436;6.972;2023-12-20T06:41:00;17.20;;;7.93;;
2011;SDS011;1009;51.436;6.972;2023-12-20T06:43:27;15.20;;;8.03;;
2011;SDS011;1009;51.436;6.972;2023-12-20T06:45:55;16.23;;;8.33;;
2011;SDS011;1009;51.436;6.972;2023-12-20T06:48:22;15.43;;;9.10;;
2011;SDS011;1009;51.436;6.972;2023-12-20T06:50:48;16.30;;;9.20;;
2011;SDS011;1009;51.436;6.972;2023-12-20T06:53:15;14.87;;;9.20;;
2011;SDS011;1009;51.436;6.972;2023-12-20T06:55:42;14.70;;;8.43;;
2011;SDS011;1009;51.436;6.972;2023-12-20T06:58:10;16.80;;;9.00;;
2011;SDS011;1009;51.436;6.972;2023-12-20T07:00:37;24.90;;;9.23;;
2011;SDS011;1009;51.436;6.972;2023-12-20T07:03:04;17.20;;;8.10;;
2011;SDS011;1009;51.436;6.972;2023-12-20T07:05:31;16.37;;;8.80;;
2011;SDS011;1009;51.436;6.972;2023-12-20T07:07:58;13.17;;;8.60;;
2011;SDS011;1009;51.436;6.972;2023-12-20T07:10:25;18.57;;;8.60;;
2011;SDS011;1009;51.436;6.972;2023-12-20T07:12:50;15.83;;;7.70;;
2011;SDS011;1009;51.436;6.972;2023-12-20T07:15:21;16.13;;;8.50;;
2011;SDS011;1009;51.436;6.972;2023-12-20T07:17:48;16.53;;;9.00;;
2011;SDS011;1009;51.436;6.972;2023-12-20T07:20:15;18.60;;;8.00;;
2011;SDS011;1009;51.436;6.972;2023-12-20T07:22:42;14.87;;;7.47;;
2011;SDS011;1009;51.436;6.972;2023-12-20T07:25:09;14.73;;;7.93;;
2011;SDS011;1009;51.436;6.972;2023-12-20T07:27:37;19.70;;;10.03;;
2011;SDS011;1009;51.436;6.972;2023-12-20T07:30:04;22.87;;;9.17;;
2011;SDS011;1009;51.436;6.972;2023-12-20T07:32:33;20.77;;;9.47;;
2011;SDS011;1009;51.436;6.972;2023-12-20T07:34:59;14.97;;;7.87;;
2011;SDS011;1009;51.436;6.972;2023-12-20T07:37:27;16.87;;;8.03;;
2011;SDS011;1009;51.436;6.972;2023-12-20T07:39:54;18.97;;;7.97;;
2011;SDS011;1009;51.436;6.972;2023-12-20T07:42:20;14.50;;;8.67;;
2011;SDS011;1009;51.436;6.972;2023-12-20T07:44:48;12.40;;;8.23;;
2011;SDS011;1009;51.436;6.972;2023-12-20T07:47:14;19.33;;;7.73;;
2011;SDS011;1009;51.436;6.972;2023-12-20T07:49:47;14.53;;;8.10;;
2011;SDS011;1009;51.436;6.972;2023-12-20T07:52:14;18.60;;;7.70;;
2011;SDS011;1009;51.436;6.972;2023-12-20T07:54:41;11.40;;;6.70;;
2011;SDS011;1009;51.436;6.972;2023-12-20T07:57:08;12.23;;;7.83;;
2011;SDS011;1009;51.436;6.972;2023-12-20T07:59:35;14.73;;;6.70;;
2011;SDS011;1009;51.436;6.972;2023-12-20T08:02:02;18.27;;;6.97;;
2011;SDS011;1009;51.436;6.972;2023-12-20T08:04:29;13.27;;;6.53;;
2011;SDS011;1009;51.436;6.972;2023-12-20T08:06:57;11.90;;;6.80;;
2011;SDS011;1009;51.436;6.972;2023-12-20T08:09:25;17.50;;;7.30;;
2011;SDS011;1009;51.436;6.972;2023-12-20T08:11:52;13.53;;;6.90;;
2011;SDS011;1009;51.436;6.972;2023-12-20T08:14:21;12.50;;;6.27;;
2011;SDS011;1009;51.436;6.972;2023-12-20T08:16:47;13.27;;;7.40;;
2011;SDS011;1009;51.436;6.972;2023-12-20T08:19:14;20.50;;;7.90;;
2011;SDS011;1009;51.436;6.972;2023-12-20T08:21:41;15.10;;;7.57;;
2011;SDS011;1009;51.436;6.972;2023-12-20T08:24:09;14.67;;;7.77;;
2011;SDS011;1009;51.436;6.972;2023-12-20T08:26:36;20.20;;;7.03;;
2011;SDS011;1009;51.436;6.972;2023-12-20T08:29:02;12.80;;;7.00;;
2011;SDS011;1009;51.436;6.972;2023-12-20T08:31:29;17.80;;;7.60;;
2011;SDS011;1009;51.436;6.972;2023-12-20T08:33:56;14.37;;;6.83;;
2011;SDS011;1009;51.436;6.972;2023-12-20T08:36:23;15.33;;;7.00;;
2011;SDS011;1009;51.436;6.972;2023-12-20T08:38:50;16.40;;;7.13;;
2011;SDS011;1009;51.436;6.972;2023-12-20T08:41:18;18.00;;;8.63;;
2011;SDS011;1009;51.436;6.972;2023-12-20T08:43:45;12.63;;;7.70;;
2011;SDS011;1009;51.436;6.972;2023-12-20T08:46:13;17.53;;;7.80;;
2011;SDS011;1009;51.436;6.972;2023-12-20T08:48:40;10.60;;;7.13;;
2011;SDS011;1009;51.436;6.972;2023-12-20T08:51:07;10.73;;;7.20;;
2011;SDS011;1009;51.436;6.972;2023-12-20T08:53:35;15.27;;;6.23;;
2011;SDS011;1009;51.436;6.972;2023-12-20T08:56:02;15.40;;;6.40;;
2011;SDS011;1009;51.436;6.972;2023-12-20T08:58:30;14.90;;;7.23;;
2011;SDS011;1009;51.436;6.972;2023-12-20T09:00:58;15.97;;;5.77;;
2011;SDS011;1009;51.436;6.972;2023-12-20T09:03:25;12.07;;;5.80;;
2011;SDS011;1009;51.436;6.972;2023-12-20T09:05:52;17.17;;;5.70;;
2011;SDS011;1009;51.436;6.972;2023-12-20T09:08:18;14.10;;;5.87;;
2011;SDS011;1009;51.436;6.972;2023-12-20T09:10:45;11.30;;;4.70;;
2011;SDS011;1009;51.436;6.972;2023-12-20T09:13:12;9.23;;;5.27;;
2011;SDS011;1009;51.436;6.972;2023-12-20T09:15:40;13.90;;;5.43;;
2011;SDS011;1009;51.436;6.972;2023-12-20T09:18:07;10.50;;;5.13;;
2011;SDS011;1009;51.436;6.972;2023-12-20T09:20:34;8.70;;;5.10;;
2011;SDS011;1009;51.436;6.972;2023-12-20T09:23:01;12.43;;;5.73;;
2011;SDS011;1009;51.436;6.972;2023-12-20T09:25:28;19.00;;;5.50;;
2011;SDS011;1009;51.436;6.972;2023-12-20T09:27:55;11.83;;;4.60;;
2011;SDS011;1009;51.436;6.972;2023-12-20T09:30:21;14.40;;;4.80;;
2011;SDS011;1009;51.436;6.972;2023-12-20T09:32:50;9.90;;;5.60;;
2011;SDS011;1009;51.436;6.972;2023-12-20T09:35:16;15.43;;;5.90;;
2011;SDS011;1009;51.436;6.972;2023-12-20T09:37:43;10.93;;;4.53;;
2011;SDS011;1009;51.436;6.972;2023-12-20T09:40:13;8.07;;;4.60;;
2011;SDS011;1009;51.436;6.972;2023-12-20T09:42:48;10.13;;;5.30;;
2011;SDS011;1009;51.436;6.972;2023-12-20T09:45:21;12.90;;;4.87;;
2011;SDS011;1009;51.436;6.972;2023-12-20T09:47:52;10.63;;;4.83;;
2011;SDS011;1009;51.436;6.972;2023-12-20T09:50:19;10.60;;;4.87;;
2011;SDS011;1009;51.436;6.972;2023-12-20T09:52:48;7.50;;;4.60;;
2011;SDS011;1009;51.436;6.972;2023-12-20T09:55:17;9.83;;;4.50;;
2011;SDS011;1009;51.436;6.972;2023-12-20T09:57:44;12.23;;;5.10;;
2011;SDS011;1009;51.436;6.972;2023-12-20T10:00:12;10.43;;;5.10;;
2011;SDS011;1009;51.436;6.972;2023-12-20T10:02:45;17.43;;;5.70;;
2011;SDS011;1009;51.436;6.972;2023-12-20T10:05:18;14.67;;;5.63;;
2011;SDS011;1009;51.436;6.972;2023-12-20T10:07:52;7.17;;;4.30;;
2011;SDS011;1009;51.436;6.972;2023-12-20T10:10:18;13.07;;;5.50;;
2011;SDS011;1009;51.436;6.972;2023-12-20T10:13:00;9.00;;;5.37;;
2011;SDS011;1009;51.436;6.972;2023-12-20T10:15:28;9.33;;;4.30;;
2011;SDS011;1009;51.436;6.972;2023-12-20T10:17:55;13.97;;;4.77;;
2011;SDS011;1009;51.436;6.972;2023-12-20T10:20:24;11.30;;;4.77;;
2011;SDS011;1009;51.436;6.972;2023-12-20T10:22:52;12.23;;;5.60;;
2011;SDS011;1009;51.436;6.972;2023-12-20T10:25:19;15.53;;;4.83;;
2011;SDS011;1009;51.436;6.972;2023-12-20T10:27:46;13.30;;;5.30;;
2011;SDS011;1009;51.436;6.972;2023-12-20T10:30:13;15.57;;;5.30;;
2011;SDS011;1009;51.436;6.972;2023-12-20T10:32:40;17.03;;;5.80;;
2011;SDS011;1009;51.436;6.972;2023-12-20T10:35:08;10.07;;;5.03;;
2011;SDS011;1009;51.436;6.972;2023-12-20T10:37:36;16.13;;;5.77;;
2011;SDS011;1009;51.436;6.972;2023-12-20T10:40:04;10.53;;;4.93;;
2011;SDS011;1009;51.436;6.972;2023-12-20T10:42:32;11.87;;;6.10;;
2011;SDS011;1009;51.436;6.972;2023-12-20T10:44:59;12.50;;;5.37;;
2011;SDS011;1009;51.436;6.972;2023-12-20T10:47:26;15.17;;;5.83;;
2011;SDS011;1009;51.436;6.972;2023-12-20T10:49:57;13.70;;;5.33;;
2011;SDS011;1009;51.436;6.972;2023-12-20T10:52:25;9.20;;;6.43;;
2011;SDS011;1009;51.436;6.972;2023-12-20T10:54:56;17.03;;;4.93;;
2011;SDS011;1009;51.436;6.972;2023-12-20T10:57:23;8.30;;;4.93;;
2011;SDS011;1009;51.436;6.972;2023-12-20T10:59:53;13.20;;;5.57;;
2011;SDS011;1009;51.436;6.972;2023-12-20T11:02:21;9.30;;;5.30;;
2011;SDS011;1009;51.436;6.972;2023-12-20T11:04:50;11.07;;;5.60;;
2011;SDS011;1009;51.436;6.972;2023-12-20T11:07:23;12.50;;;5.67;;
2011;SDS011;1009;51.436;6.972;2023-12-20T11:09:58;8.57;;;5.30;;
2011;SDS011;1009;51.436;6.972;2023-12-20T11:12:32;12.93;;;4.90;;
2011;SDS011;1009;51.436;6.972;2023-12-20T11:15:04;9.13;;;5.00;;
2011;SDS011;1009;51.436;6.972;2023-12-20T11:17:32;9.83;;;4.53;;
2011;SDS011;1009;51.436;6.972;2023-12-20T11:20:06;7.00;;;4.87;;
2011;SDS011;1009;51.436;6.972;2023-12-20T11:22:36;7.30;;;5.00;;
2011;SDS011;1009;51.436;6.972;2023-12-20T11:25:08;11.97;;;5.50;;
2011;SDS011;1009;51.436;6.972;2023-12-20T11:27:36;11.90;;;6.60;;
2011;SDS011;1009;51.436;6.972;2023-12-20T11:30:07;15.57;;;5.27;;
2011;SDS011;1009;51.436;6.972;2023-12-20T11:32:35;11.27;;;5.07;;
2011;SDS011;1009;51.436;6.972;2023-12-20T11:35:16;11.03;;;5.50;;
2011;SDS011;1009;51.436;6.972;2023-12-20T11:37:44;9.63;;;4.90;;
2011;SDS011;1009;51.436;6.972;2023-12-20T11:40:14;12.33;;;5.40;;
2011;SDS011;1009;51.436;6.972;2023-12-20T11:42:42;13.50;;;5.47;;
2011;SDS011;1009;51.436;6.972;2023-12-20T11:45:10;9.10;;;4.67;;
2011;SDS011;1009;51.436;6.972;2023-12-20T11:47:40;11.70;;;4.90;;
2011;SDS011;1009;51.436;6.972;2023-12-20T11:50:08;15.83;;;6.83;;
2011;SDS011;1009;51.436;6.972;2023-12-20T11:52:35;12.33;;;6.30;;
2011;SDS011;1009;51.436;6.972;2023-12-20T11:55:02;11.30;;;6.27;;
2011;SDS011;1009;51.436;6.972;2023-12-20T11:57:30;12.30;;;6.17;;
2011;SDS011;1009;51.436;6.972;2023-12-20T11:59:57;15.37;;;7.70;;
2011;SDS011;1009;51.436;6.972;2023-12-20T12:02:24;15.80;;;6.30;;
2011;SDS011;1009;51.436;6.972;2023-12-20T12:04:51;13.73;;;6.67;;
2011;SDS011;1009;51.436;6.972;2023-12-20T12:07:18;15.57;;;7.07;;
2011;SDS011;1009;51.436;6.972;2023-12-20T12:09:45;12.67;;;7.53;;
2011;SDS011;1009;51.436;6.972;2023-12-20T12:12:12;14.60;;;7.97;;
2011;SDS011;1009;51.436;6.972;2023-12-20T12:14:40;10.17;;;7.00;;
2011;SDS011;1009;51.436;6.972;2023-12-20T12:17:09;18.60;;;7.00;;
2011;SDS011;1009;51.436;6.972;2023-12-20T12:19:36;12.60;;;7.33;;
2011;SDS011;1009;51.436;6.972;2023-12-20T12:22:04;14.67;;;6.73;;
2011;SDS011;1009;51.436;6.972;2023-12-20T12:24:32;10.00;;;6.90;;
2011;SDS011;1009;51.436;6.972;2023-12-20T12:26:59;7.07;;;6.30;;
2011;SDS011;1009;51.436;6.972;2023-12-20T12:29:26;14.20;;;6.67;;
2011;SDS011;1009;51.436;6.972;2023-12-20T12:31:54;13.10;;;8.20;;
2011;SDS011;1009;51.436;6.972;2023-12-20T12:34:21;11.93;;;8.43;;
2011;SDS011;1009;51.436;6.972;2023-12-20T12:36:48;12.07;;;6.80;;
2011;SDS011;1009;51.436;6.972;2023-12-20T12:39:14;14.87;;;6.40;;
2011;SDS011;1009;51.436;6.972;2023-12-20T12:41:41;11.50;;;5.93;;
2011;SDS011;1009;51.436;6.972;2023-12-20T12:44:08;11.30;;;7.93;;
2011;SDS011;1009;51.436;6.972;2023-12-20T12:46:35;12.73;;;6.90;;
2011;SDS011;1009;51.436;6.972;2023-12-20T12:49:14;14.07;;;8.33;;
2011;SDS011;1009;51.436;6.972;2023-12-20T12:51:41;13.93;;;7.13;;
2011;SDS011;1009;51.436;6.972;2023-12-20T12:54:08;8.67;;;6.20;;
2011;SDS011;1009;51.436;6.972;2023-12-20T12:56:35;13.87;;;6.83;;
2011;SDS011;1009;51.436;6.972;2023-12-20T12:59:02;10.07;;;6.77;;
2011;SDS011;1009;51.436;6.972;2023-12-20T13:01:28;10.50;;;7.37;;
2011;SDS011;1009;51.436;6.972;2023-12-20T13:03:54;11.93;;;6.93;;
2011;SDS011;1009;51.436;6.972;2023-12-20T13:06:22;10.47;;;6.17;;
2011;SDS011;1009;51.436;6.972;2023-12-20T13:08:49;14.60;;;6.30;;
2011;SDS011;1009;51.436;6.972;2023-12-20T13:11:16;16.70;;;6.23;;
2011;SDS011;1009;51.436;6.972;2023-12-20T13:13:43;12.20;;;7.27;;
2011;SDS011;1009;51.436;6.972;2023-12-20T13:16:09;15.37;;;6.83;;
2011;SDS011;1009;51.436;6.972;2023-12-20T13:18:36;11.53;;;7.20;;
2011;SDS011;1009;51.436;6.972;2023-12-20T13:21:07;13.10;;;7.33;;
2011;SDS011;1009;51.436;6.972;2023-12-20T13:23:35;8.90;;;7.43;;
2011;SDS011;1009;51.436;6.972;2023-12-20T13:26:02;13.60;;;7.20;;
2011;SDS011;1009;51.436;6.972;2023-12-20T13:28:28;16.10;;;8.30;;
2011;SDS011;1009;51.436;6.972;2023-12-20T13:30:55;16.50;;;8.20;;
2011;SDS011;1009;51.436;6.972;2023-12-20T13:33:22;13.13;;;7.80;;
2011;SDS011;1009;51.436;6.972;2023-12-20T13:35:49;16.60;;;7.90;;
2011;SDS011;1009;51.436;6.972;2023-12-20T13:38:15;18.30;;;8.13;;
2011;SDS011;1009;51.436;6.972;2023-12-20T13:40:43;11.33;;;8.20;;
2011;SDS011;1009;51.436;6.972;2023-12-20T13:43:10;11.20;;;8.87;;
2011;SDS011;1009;51.436;6.972;2023-12-20T13:45:37;18.13;;;8.73;;
2011;SDS011;1009;51.436;6.972;2023-12-20T13:48:04;13.57;;;8.67;;
2011;SDS011;1009;51.436;6.972;2023-12-20T13:50:31;11.63;;;8.40;;
2011;SDS011;1009;51.436;6.972;2023-12-20T13:52:58;15.50;;;10.80;;
2011;SDS011;1009;51.436;6.972;2023-12-20T13:55:25;15.10;;;10.57;;
2011;SDS011;1009;51.436;6.972;2023-12-20T13:57:54;19.60;;;10.67;;
2011;SDS011;1009;51.436;6.972;2023-12-20T14:00:20;15.03;;;10.10;;
2011;SDS011;1009;51.436;6.972;2023-12-20T14:02:47;16.20;;;9.37;;
2011;SDS011;1009;51.436;6.972;2023-12-20T14:05:14;15.10;;;10.33;;
2011;SDS011;1009;51.436;6.972;2023-12-20T14:07:42;12.80;;;10.53;;
2011;SDS011;1009;51.436;6.972;2023-12-20T14:10:10;14.63;;;10.40;;
2011;SDS011;1009;51.436;6.972;2023-12-20T14:12:37;13.63;;;10.57;;
2011;SDS011;1009;51.436;6.972;2023-12-20T14:15:06;17.60;;;11.63;;
2011;SDS011;1009;51.436;6.972;2023-12-20T14:17:36;21.83;;;13.80;;
2011;SDS011;1009;51.436;6.972;2023-12-20T14:20:03;22.40;;;14.33;;
2011;SDS011;1009;51.436;6.972;2023-12-20T14:22:31;20.83;;;12.67;;
2011;SDS011;1009;51.436;6.972;2023-12-20T14:24:58;23.23;;;15.07;;
2011;SDS011;1009;51.436;6.972;2023-12-20T14:27:24;25.17;;;15.87;;
2011;SDS011;1009;51.436;6.972;2023-12-20T14:29:52;20.50;;;15.63;;
2011;SDS011;1009;51.436;6.972;2023-12-20T14:32:21;24.80;;;15.70;;
2011;SDS011;1009;51.436;6.972;2023-12-20T14:34:47;24.27;;;14.03;;
2011;SDS011;1009;51.436;6.972;2023-12-20T14:37:14;24.93;;;14.30;;
2011;SDS011;1009;51.436;6.972;2023-12-20T14:39:42;20.37;;;13.17;;
2011;SDS011;1009;51.436;6.972;2023-12-20T14:42:08;16.93;;;12.07;;
2011;SDS011;1009;51.436;6.972;2023-12-20T14:44:38;20.40;;;12.80;;
2011;SDS011;1009;51.436;6.972;2023-12-20T14:47:07;21.83;;;13.07;;
2011;SDS011;1009;51.436;6.972;2023-12-20T14:49:36;20.80;;;14.10;;
2011;SDS011;1009;51.436;6.972;2023-12-20T14:52:03;16.83;;;12.07;;
2011;SDS011;1009;51.436;6.972;2023-12-20T14:54:30;19.80;;;12.60;;
2011;SDS011;1009;51.436;6.972;2023-12-20T14:56:57;17.80;;;12.03;;
2011;SDS011;1009;51.436;6.972;2023-12-20T14:59:23;18.53;;;12.00;;
2011;SDS011;1009;51.436;6.972;2023-12-20T15:01:50;21.80;;;13.03;;